Time;durP1;ratioP1;P1;durP2;ratioP2;P2;SDS_P1;SDS_P2;PMS_P1;PMS_P2;Temp;Humidity;BMP_temperature;BMP_pressure;BME280_temperature;BME280_humidity;BME280_pressure;Samples;Min_cycle;Max_cycle;Signal;HPM_P1;HPM_P2
2022/09/04 00:01:53;;;;;;;34.92;28.70;;;;;;;;;;5052127;28;20480;-59
2022/09/04 00:04:35;;;;;;;36.03;29.40;;;;;;;;;;5052331;28;20425;-59
2022/09/04 00:07:22;;;;;;;35.38;29.63;;;;;;;;;;5052009;28;20544;-59
2022/09/04 00:10:24;;;;;;;38.42;28.10;;;;;;;;;;5052255;28;20029;-59
2022/09/04 00:12:50;;;;;;;36.92;29.25;;;;;;;;;;5049899;28;20514;-65
2022/09/04 00:15:16;;;;;;;38.33;29.40;;;;;;;;;;5049308;28;20045;-59
2022/09/04 00:17:56;;;;;;;31.55;26.58;;;;;;;;;;5049593;28;20048;-68
2022/09/04 00:20:22;;;;;;;36.67;29.13;;;;;;;;;;5049652;28;20449;-59
2022/09/04 00:22:48;;;;;;;35.55;29.20;;;;;;;;;;5049339;28;20167;-61
2022/09/04 00:25:20;;;;;;;38.33;29.20;;;;;;;;;;5048866;28;20025;-61
2022/09/04 00:27:49;;;;;;;35.63;29.52;;;;;;;;;;5048855;28;20114;-71
2022/09/04 00:30:23;;;;;;;35.80;29.17;;;;;;;;;;5049351;28;20599;-59
2022/09/04 00:32:51;;;;;;;36.75;27.88;;;;;;;;;;5049090;28;20032;-66
2022/09/04 00:35:20;;;;;;;34.88;27.88;;;;;;;;;;5049524;28;20508;-59
2022/09/04 00:37:57;;;;;;;34.70;27.52;;;;;;;;;;5049059;28;20377;-60
2022/09/04 00:40:46;;;;;;;36.53;28.58;;;;;;;;;;5048905;28;20033;-60
2022/09/04 00:43:12;;;;;;;35.70;28.42;;;;;;;;;;4990115;28;20050;-70
2022/09/04 00:45:53;;;;;;;38.13;28.38;;;;;;;;;;4990275;28;20612;-58
2022/09/04 00:48:20;;;;;;;35.85;28.55;;;;;;;;;;5009708;28;20050;-59
2022/09/04 00:51:14;;;;;;;34.55;29.27;;;;;;;;;;4992882;28;20383;-70
2022/09/04 00:53:52;;;;;;;37.40;29.02;;;;;;;;;;5009349;28;20076;-60
2022/09/04 00:56:25;;;;;;;35.40;28.15;;;;;;;;;;5009215;28;20021;-59
2022/09/04 00:59:10;;;;;;;37.63;30.27;;;;;;;;;;5009419;28;20482;-59
2022/09/04 01:01:36;;;;;;;37.08;29.42;;;;;;;;;;5009377;28;20371;-59
2022/09/04 01:04:15;;;;;;;34.53;29.35;;;;;;;;;;5009149;28;20498;-60
2022/09/04 01:06:50;;;;;;;36.50;28.85;;;;;;;;;;5009055;28;20141;-62
2022/09/04 01:09:20;;;;;;;37.08;28.45;;;;;;;;;;5008991;28;20029;-59
2022/09/04 01:12:05;;;;;;;35.28;28.38;;;;;;;;;;5009253;28;20026;-59
2022/09/04 01:14:51;;;;;;;37.30;28.48;;;;;;;;;;5009042;28;20096;-60
2022/09/04 01:17:24;;;;;;;36.17;27.90;;;;;;;;;;5008606;28;20050;-59
2022/09/04 01:19:50;;;;;;;35.58;28.45;;;;;;;;;;5023450;28;20125;-71
2022/09/04 01:22:23;;;;;;;35.33;28.38;;;;;;;;;;5050775;28;20097;-59
2022/09/04 01:25:08;;;;;;;37.05;27.15;;;;;;;;;;5050960;28;20021;-60
2022/09/04 01:27:36;;;;;;;35.35;28.42;;;;;;;;;;5050497;28;20484;-59
2022/09/04 01:30:04;;;;;;;38.22;29.15;;;;;;;;;;5050704;28;20112;-59
2022/09/04 01:32:57;;;;;;;41.03;29.20;;;;;;;;;;5050959;28;20536;-56
2022/09/04 01:35:22;;;;;;;;;;;;;;;;;;5051383;28;20465;-67
2022/09/04 01:38:07;;;;;;;36.65;27.40;;;;;;;;;;5050933;28;19904;-60
2022/09/04 01:40:34;;;;;;;37.58;28.85;;;;;;;;;;5050462;28;20043;-68
2022/09/04 01:43:12;;;;;;;39.30;29.95;;;;;;;;;;5050922;28;20867;-59
2022/09/04 01:45:57;;;;;;;36.10;28.60;;;;;;;;;;5050840;28;20125;-69
2022/09/04 01:48:28;;;;;;;35.42;28.75;;;;;;;;;;5049458;28;20572;-58
2022/09/04 01:50:57;;;;;;;28.95;21.02;;;;;;;;;;5050875;28;20554;-59
2022/09/04 01:53:25;;;;;;;38.40;29.10;;;;;;;;;;5050830;28;20068;-59
2022/09/04 01:55:51;;;;;;;38.33;29.20;;;;;;;;;;5050601;28;20024;-69
2022/09/04 01:58:20;;;;;;;38.42;28.80;;;;;;;;;;5050686;28;20025;-59
2022/09/04 02:00:52;;;;;;;39.15;30.02;;;;;;;;;;5051112;28;20029;-59
2022/09/04 02:03:20;;;;;;;;;;;;;;;;;;5054752;28;20078;-59
2022/09/04 02:06:00;;;;;;;36.75;29.10;;;;;;;;;;5054392;28;20006;-59
2022/09/04 02:08:35;;;;;;;37.58;28.88;;;;;;;;;;5054665;28;20127;-69
2022/09/04 02:11:06;;;;;;;37.50;26.80;;;;;;;;;;5054304;28;20108;-68
2022/09/04 02:14:03;;;;;;;35.20;27.70;;;;;;;;;;5054245;28;20029;-59
2022/09/04 02:16:41;;;;;;;35.78;27.75;;;;;;;;;;5051658;28;20081;-65
2022/09/04 02:19:16;;;;;;;33.38;26.55;;;;;;;;;;5051899;28;20025;-70
2022/09/04 02:21:42;;;;;;;35.53;26.17;;;;;;;;;;5052168;28;20049;-70
2022/09/04 02:24:08;;;;;;;34.67;26.48;;;;;;;;;;5052016;28;20021;-58
2022/09/04 02:26:58;;;;;;;31.42;25.08;;;;;;;;;;5051277;28;20072;-59
2022/09/04 02:29:31;;;;;;;34.88;25.67;;;;;;;;;;5051442;28;20029;-69
2022/09/04 02:32:11;;;;;;;37.53;27.25;;;;;;;;;;5051822;28;20059;-59
2022/09/04 02:34:44;;;;;;;36.53;27.15;;;;;;;;;;5051420;28;20037;-58
2022/09/04 02:37:18;;;;;;;36.63;28.50;;;;;;;;;;5051612;28;20250;-58
2022/09/04 02:39:44;;;;;;;33.80;26.23;;;;;;;;;;5051304;28;20136;-58
2022/09/04 02:42:23;;;;;;;35.33;27.95;;;;;;;;;;5051215;28;20029;-59
2022/09/04 02:44:57;;;;;;;40.60;28.02;;;;;;;;;;5051183;28;20815;-58
2022/09/04 02:47:32;;;;;;;38.08;28.98;;;;;;;;;;5051120;28;20060;-59
2022/09/04 02:50:03;;;;;;;36.85;29.40;;;;;;;;;;5050894;28;20040;-58
2022/09/04 02:52:47;;;;;;;36.15;28.33;;;;;;;;;;5052151;28;20045;-59
2022/09/04 02:55:23;;;;;;;38.78;29.08;;;;;;;;;;5053398;28;20376;-59
2022/09/04 02:58:00;;;;;;;36.78;28.40;;;;;;;;;;5052928;28;20017;-58
2022/09/04 03:00:38;;;;;;;34.60;27.98;;;;;;;;;;5053217;28;20028;-66
2022/09/04 03:03:23;;;;;;;38.13;28.08;;;;;;;;;;5053494;28;20056;-59
2022/09/04 03:05:52;;;;;;;33.45;26.63;;;;;;;;;;5053322;28;20079;-59
2022/09/04 03:08:22;;;;;;;33.83;26.42;;;;;;;;;;5053315;28;20043;-58
2022/09/04 03:10:48;;;;;;;35.15;26.58;;;;;;;;;;5053368;28;20036;-58
2022/09/04 03:13:22;;;;;;;35.88;26.75;;;;;;;;;;5052895;28;20472;-58
2022/09/04 03:15:54;;;;;;;35.30;26.58;;;;;;;;;;5052853;28;20052;-58
2022/09/04 03:18:25;;;;;;;33.30;25.83;;;;;;;;;;5052936;28;20507;-59
2022/09/04 03:21:00;;;;;;;37.42;27.10;;;;;;;;;;5053171;28;20040;-58
2022/09/04 03:23:34;;;;;;;35.88;26.75;;;;;;;;;;5053010;28;20025;-63
2022/09/04 03:26:03;;;;;;;32.50;25.50;;;;;;;;;;5053027;28;20183;-58
2022/09/04 03:28:32;;;;;;;34.67;25.63;;;;;;;;;;5052486;28;20729;-59
2022/09/04 03:31:01;;;;;;;32.20;25.40;;;;;;;;;;5053164;28;20024;-69
2022/09/04 03:33:38;;;;;;;32.10;24.92;;;;;;;;;;5052918;28;20029;-58
2022/09/04 03:36:12;;;;;;;35.08;25.42;;;;;;;;;;5052821;28;20100;-58
2022/09/04 03:38:56;;;;;;;35.38;26.48;;;;;;;;;;5052471;28;20823;-58
2022/09/04 03:41:26;;;;;;;31.58;24.35;;;;;;;;;;5052503;28;20021;-58
2022/09/04 03:44:10;;;;;;;37.15;26.65;;;;;;;;;;5052768;28;20522;-58
2022/09/04 03:47:00;;;;;;;33.97;26.67;;;;;;;;;;5052506;28;20048;-58
2022/09/04 03:49:26;;;;;;;36.63;29.38;;;;;;;;;;5052762;28;20550;-68
2022/09/04 03:52:02;;;;;;;36.63;28.50;;;;;;;;;;5052750;28;20029;-58
2022/09/04 03:54:37;;;;;;;37.22;28.13;;;;;;;;;;5052446;28;20040;-67
2022/09/04 03:57:03;;;;;;;38.85;29.33;;;;;;;;;;5052361;28;20885;-58
2022/09/04 03:59:35;;;;;;;35.08;27.58;;;;;;;;;;5052462;28;20033;-64
2022/09/04 04:02:01;;;;;;;;;;;;;;;;;;5052609;28;20384;-59
2022/09/04 04:04:36;;;;;;;39.47;29.15;;;;;;;;;;5052117;28;19920;-58
2022/09/04 04:07:07;;;;;;;38.75;29.27;;;;;;;;;;5052253;28;20087;-60
2022/09/04 04:09:33;;;;;;;38.35;29.80;;;;;;;;;;5052077;28;20028;-58
2022/09/04 04:12:14;;;;;;;38.72;30.05;;;;;;;;;;5052066;28;20021;-58
2022/09/04 04:14:52;;;;;;;42.78;32.03;;;;;;;;;;5051823;28;20025;-59
2022/09/04 04:17:34;;;;;;;38.63;28.73;;;;;;;;;;5051595;28;20131;-58
2022/09/04 04:20:29;;;;;;;41.67;30.85;;;;;;;;;;5051878;28;20114;-59
2022/09/04 04:23:16;;;;;;;42.33;30.92;;;;;;;;;;5049365;28;20080;-57
2022/09/04 04:26:05;;;;;;;42.83;31.02;;;;;;;;;;5048760;28;20090;-58
2022/09/04 04:28:58;;;;;;;39.75;31.40;;;;;;;;;;5048707;28;20045;-63
2022/09/04 04:31:43;;;;;;;45.40;30.73;;;;;;;;;;5049393;28;20469;-57
2022/09/04 04:34:21;;;;;;;43.00;31.15;;;;;;;;;;5049276;28;20040;-60
2022/09/04 04:36:53;;;;;;;42.65;31.92;;;;;;;;;;5049052;28;20075;-58
2022/09/04 04:39:25;;;;;;;50.55;33.65;;;;;;;;;;5049287;28;20037;-63
2022/09/04 04:42:03;;;;;;;48.67;32.83;;;;;;;;;;5049248;28;20032;-59
2022/09/04 04:47:36;;;;;;;50.53;33.42;;;;;;;;;;5048737;28;20451;-63
2022/09/04 04:50:05;;;;;;;49.80;34.00;;;;;;;;;;5049044;28;20071;-62
2022/09/04 04:52:48;;;;;;;51.58;33.60;;;;;;;;;;5049392;28;20049;-60
2022/09/04 04:55:37;;;;;;;49.58;33.50;;;;;;;;;;5048950;28;20079;-59
2022/09/04 04:58:18;;;;;;;52.45;34.53;;;;;;;;;;5048466;28;20361;-68
2022/09/04 05:00:47;;;;;;;54.88;36.10;;;;;;;;;;5051314;28;20032;-67
2022/09/04 05:03:23;;;;;;;53.88;34.47;;;;;;;;;;5051261;28;20494;-59
2022/09/04 05:06:05;;;;;;;52.75;35.40;;;;;;;;;;5051387;28;20098;-59
2022/09/04 05:08:34;;;;;;;63.38;38.72;;;;;;;;;;5051172;28;20084;-59
2022/09/04 05:11:26;;;;;;;60.33;36.67;;;;;;;;;;5051452;28;20614;-59
2022/09/04 05:13:51;;;;;;;60.55;38.72;;;;;;;;;;5051190;28;20358;-59
2022/09/04 05:16:18;;;;;;;62.45;39.90;;;;;;;;;;5050850;28;20061;-58
2022/09/04 05:18:49;;;;;;;62.40;39.30;;;;;;;;;;5051011;28;20434;-59
2022/09/04 05:21:15;;;;;;;62.40;37.58;;;;;;;;;;5051057;28;20100;-59
2022/09/04 05:23:59;;;;;;;61.33;38.83;;;;;;;;;;5050866;28;20121;-59
2022/09/04 05:26:37;;;;;;;60.45;38.13;;;;;;;;;;5050928;28;20029;-59
2022/09/04 05:29:16;;;;;;;66.22;38.28;;;;;;;;;;5050539;28;20070;-58
2022/09/04 05:31:55;;;;;;;71.28;40.92;;;;;;;;;;5050967;28;20025;-58
2022/09/04 05:34:33;;;;;;;69.75;40.47;;;;;;;;;;5050895;28;20032;-58
2022/09/04 05:37:05;;;;;;;74.82;43.33;;;;;;;;;;5050948;28;20056;-70
2022/09/04 05:39:54;;;;;;;74.30;42.80;;;;;;;;;;5054591;28;20032;-59
2022/09/04 05:42:39;;;;;;;82.88;44.58;;;;;;;;;;5054040;28;20465;-59
2022/09/04 05:45:23;;;;;;;68.70;41.65;;;;;;;;;;5054657;28;20059;-60
2022/09/04 05:47:52;;;;;;;64.75;39.03;;;;;;;;;;5054370;28;20045;-58
2022/09/04 05:50:34;;;;;;;60.13;37.60;;;;;;;;;;5054423;28;20133;-70
2022/09/04 05:53:15;;;;;;;39.60;25.33;;;;;;;;;;5054190;28;20052;-71
2022/09/04 05:55:41;;;;;;;56.60;35.08;;;;;;;;;;5054328;28;20423;-57
2022/09/04 05:58:36;;;;;;;52.38;32.47;;;;;;;;;;5054373;28;20029;-61
2022/09/04 06:01:01;;;;;;;54.88;33.30;;;;;;;;;;5054341;28;20025;-58
2022/09/04 06:03:35;;;;;;;46.25;31.38;;;;;;;;;;5054464;28;20079;-59
2022/09/04 06:06:04;;;;;;;46.80;31.83;;;;;;;;;;5054493;28;20032;-60
2022/09/04 06:08:35;;;;;;;44.53;30.58;;;;;;;;;;5054875;28;20833;-64
2022/09/04 06:11:20;;;;;;;42.50;29.08;;;;;;;;;;5054251;28;20024;-64
2022/09/04 06:13:58;;;;;;;42.30;28.98;;;;;;;;;;5054235;28;20051;-60
2022/09/04 06:16:48;;;;;;;38.20;26.88;;;;;;;;;;5054116;28;20096;-60
2022/09/04 06:19:20;;;;;;;39.45;25.30;;;;;;;;;;5054119;28;20531;-65
2022/09/04 06:21:57;;;;;;;35.17;25.13;;;;;;;;;;5054146;28;20040;-70
2022/09/04 06:24:41;;;;;;;36.88;24.70;;;;;;;;;;5053680;28;20025;-69
2022/09/04 06:27:07;;;;;;;35.72;24.52;;;;;;;;;;5054012;28;20083;-65
2022/09/04 06:29:52;;;;;;;32.85;23.00;;;;;;;;;;5053751;28;20021;-56
2022/09/04 06:32:21;;;;;;;34.38;23.73;;;;;;;;;;5053809;28;20053;-56
2022/09/04 06:35:08;;;;;;;32.70;23.05;;;;;;;;;;5047612;28;20104;-64
2022/09/04 06:37:34;;;;;;;33.80;23.60;;;;;;;;;;5033860;28;20416;-56
2022/09/04 06:40:06;;;;;;;37.22;22.27;;;;;;;;;;5034074;28;20021;-55
2022/09/04 06:42:51;;;;;;;33.80;24.23;;;;;;;;;;5041564;28;20060;-60
2022/09/04 06:45:30;;;;;;;35.92;22.25;;;;;;;;;;5053665;28;20167;-56
2022/09/04 06:48:15;;;;;;;32.15;23.00;;;;;;;;;;5053188;28;20488;-56
2022/09/04 06:50:44;;;;;;;31.88;22.30;;;;;;;;;;5053200;28;20068;-63
2022/09/04 06:53:28;;;;;;;34.30;23.55;;;;;;;;;;5052623;28;20476;-67
2022/09/04 06:56:06;;;;;;;37.15;23.42;;;;;;;;;;5053618;28;20040;-71
2022/09/04 06:58:42;;;;;;;32.90;23.13;;;;;;;;;;5046734;28;20647;-65
2022/09/04 07:01:12;;;;;;;33.42;23.02;;;;;;;;;;5042443;28;20026;-69
2022/09/04 07:03:43;;;;;;;36.40;21.23;;;;;;;;;;5038173;28;20032;-74
2022/09/04 07:06:12;;;;;;;33.63;23.10;;;;;;;;;;5033079;28;20025;-70
2022/09/04 07:08:48;;;;;;;31.38;22.23;;;;;;;;;;5033241;28;20116;-74
2022/09/04 07:11:17;;;;;;;33.05;23.17;;;;;;;;;;5050368;28;20069;-61
2022/09/04 07:14:04;;;;;;;32.15;22.55;;;;;;;;;;5053158;28;20040;-60
2022/09/04 07:16:49;;;;;;;31.27;21.98;;;;;;;;;;5052549;28;20512;-60
2022/09/04 07:19:27;;;;;;;30.70;21.80;;;;;;;;;;5052805;28;20533;-61
2022/09/04 07:22:02;;;;;;;33.15;23.45;;;;;;;;;;5052283;28;20051;-61
2022/09/04 07:24:47;;;;;;;25.60;18.38;;;;;;;;;;5039326;28;20018;-59
2022/09/04 07:27:35;;;;;;;32.65;22.35;;;;;;;;;;5032475;28;20087;-59
2022/09/04 07:30:06;;;;;;;32.88;22.02;;;;;;;;;;5032660;28;20080;-66
2022/09/04 07:32:58;;;;;;;32.35;22.48;;;;;;;;;;5032447;28;20103;-70
2022/09/04 07:35:34;;;;;;;25.83;18.75;;;;;;;;;;5041712;28;20061;-60
2022/09/04 07:38:08;;;;;;;32.90;22.02;;;;;;;;;;5035345;28;20172;-72
2022/09/04 07:41:08;;;;;;;27.90;20.98;;;;;;;;;;5032592;28;20424;-69
2022/09/04 07:43:40;;;;;;;26.75;19.33;;;;;;;;;;5029483;28;20038;-60
2022/09/04 07:46:12;;;;;;;26.17;17.88;;;;;;;;;;5029745;28;20493;-69
2022/09/04 07:48:42;;;;;;;26.65;17.52;;;;;;;;;;5030136;28;20025;-64
2022/09/04 07:51:20;;;;;;;27.25;19.98;;;;;;;;;;5030288;28;20029;-73
2022/09/04 07:53:46;;;;;;;27.52;18.65;;;;;;;;;;5035001;28;20412;-66
2022/09/04 07:56:15;;;;;;;22.35;16.90;;;;;;;;;;5046530;28;20033;-72
2022/09/04 07:58:51;;;;;;;27.48;17.77;;;;;;;;;;5049656;28;20044;-60
2022/09/04 08:01:35;;;;;;;29.65;18.67;;;;;;;;;;5041675;28;20029;-71
2022/09/04 08:04:19;;;;;;;32.53;19.20;;;;;;;;;;5040537;28;20060;-68
2022/09/04 08:06:48;;;;;;;29.50;18.45;;;;;;;;;;5049605;28;20057;-60
2022/09/04 08:09:33;;;;;;;25.92;18.00;;;;;;;;;;5049732;28;20531;-61
2022/09/04 08:12:09;;;;;;;27.80;19.20;;;;;;;;;;5049449;28;20490;-60
2022/09/04 08:14:47;;;;;;;30.33;19.65;;;;;;;;;;5049630;28;20112;-71
2022/09/04 08:17:25;;;;;;;27.55;18.67;;;;;;;;;;5049281;28;20084;-67
2022/09/04 08:20:03;;;;;;;30.00;18.98;;;;;;;;;;5038180;28;20508;-68
2022/09/04 08:22:37;;;;;;;26.38;18.85;;;;;;;;;;5032132;28;20057;-72
2022/09/04 08:25:10;;;;;;;29.73;18.73;;;;;;;;;;5031684;28;20473;-63
2022/09/04 08:27:37;;;;;;;24.98;18.80;;;;;;;;;;5031837;28;20405;-71
2022/09/04 08:30:12;;;;;;;27.70;18.10;;;;;;;;;;5050589;28;20381;-64
2022/09/04 08:32:56;;;;;;;27.85;18.08;;;;;;;;;;5051471;28;20033;-66
2022/09/04 08:35:26;;;;;;;25.65;18.45;;;;;;;;;;5051253;28;20024;-60
2022/09/04 08:38:01;;;;;;;24.70;18.58;;;;;;;;;;5051399;28;20024;-60
2022/09/04 08:40:30;;;;;;;27.52;18.88;;;;;;;;;;5050077;28;20064;-59
2022/09/04 08:43:10;;;;;;;28.05;18.35;;;;;;;;;;5051215;28;20413;-59
2022/09/04 08:45:51;;;;;;;26.35;17.15;;;;;;;;;;5050954;28;20060;-60
2022/09/04 08:48:36;;;;;;;24.98;17.58;;;;;;;;;;5050927;28;20044;-67
2022/09/04 08:51:34;;;;;;;23.05;17.02;;;;;;;;;;5050734;28;20021;-60
2022/09/04 08:54:20;;;;;;;28.15;16.58;;;;;;;;;;5048483;28;20037;-69
2022/09/04 08:57:05;;;;;;;28.00;17.83;;;;;;;;;;5048374;28;20032;-63
2022/09/04 08:59:40;;;;;;;24.80;17.13;;;;;;;;;;5048345;28;20063;-67
2022/09/04 09:02:14;;;;;;;27.17;17.63;;;;;;;;;;5048740;28;20021;-65
2022/09/04 09:05:00;;;;;;;24.55;17.35;;;;;;;;;;5048750;28;20087;-60
2022/09/04 09:07:26;;;;;;;23.02;16.85;;;;;;;;;;5048402;28;20048;-60
2022/09/04 09:10:08;;;;;;;22.63;16.02;;;;;;;;;;5048363;28;20603;-65
2022/09/04 09:12:46;;;;;;;24.08;17.92;;;;;;;;;;5048211;28;20060;-60
2022/09/04 09:15:21;;;;;;;29.38;18.38;;;;;;;;;;5048382;28;20041;-60
2022/09/04 09:18:02;;;;;;;25.80;17.52;;;;;;;;;;5048679;28;20049;-60
2022/09/04 09:20:31;;;;;;;22.35;16.10;;;;;;;;;;5048602;28;20623;-60
2022/09/04 09:23:16;;;;;;;23.85;16.23;;;;;;;;;;5036688;28;20488;-60
2022/09/04 09:25:50;;;;;;;23.65;16.30;;;;;;;;;;5037640;28;20108;-60
2022/09/04 09:28:19;;;;;;;25.08;16.83;;;;;;;;;;5035580;28;20064;-60
2022/09/04 09:31:04;;;;;;;23.42;17.38;;;;;;;;;;5030374;28;20084;-60
2022/09/04 09:33:46;;;;;;;23.65;17.27;;;;;;;;;;5030675;28;20029;-59
2022/09/04 09:36:34;;;;;;;22.15;16.88;;;;;;;;;;5037140;28;20559;-60
2022/09/04 09:39:18;;;;;;;23.75;16.80;;;;;;;;;;5030861;28;20079;-60
2022/09/04 09:41:54;;;;;;;23.25;16.80;;;;;;;;;;5030333;28;20489;-60
2022/09/04 09:44:44;;;;;;;25.65;17.60;;;;;;;;;;5030501;28;20061;-63
2022/09/04 09:47:25;;;;;;;21.25;16.42;;;;;;;;;;5030399;28;20041;-60
2022/09/04 09:49:58;;;;;;;23.05;16.27;;;;;;;;;;5030586;28;20109;-60
2022/09/04 09:52:36;;;;;;;26.10;17.00;;;;;;;;;;5031305;28;20025;-60
2022/09/04 09:55:18;;;;;;;24.35;17.17;;;;;;;;;;5030276;28;20029;-63
2022/09/04 09:57:47;;;;;;;25.83;16.80;;;;;;;;;;5030639;28;20033;-60
2022/09/04 10:00:13;;;;;;;24.20;16.77;;;;;;;;;;5030431;28;20033;-60
2022/09/04 10:02:51;;;;;;;27.05;17.20;;;;;;;;;;5030926;28;20091;-65
2022/09/04 10:05:36;;;;;;;25.05;16.67;;;;;;;;;;5030778;28;20563;-60
2022/09/04 10:08:11;;;;;;;24.27;16.58;;;;;;;;;;5037584;28;20112;-64
2022/09/04 10:10:37;;;;;;;23.15;16.52;;;;;;;;;;5050307;28;20052;-59
2022/09/04 10:13:22;;;;;;;22.95;15.93;;;;;;;;;;5050498;28;20021;-59
2022/09/04 10:15:54;;;;;;;20.02;16.55;;;;;;;;;;5050023;28;20053;-59
2022/09/04 10:18:32;;;;;;;24.40;15.85;;;;;;;;;;5044655;28;20030;-59
2022/09/04 10:21:11;;;;;;;21.23;16.33;;;;;;;;;;5050289;28;20388;-60
2022/09/04 10:23:54;;;;;;;22.85;17.02;;;;;;;;;;5050860;28;20039;-67
2022/09/04 10:26:38;;;;;;;22.92;16.90;;;;;;;;;;5052549;28;20033;-59
2022/09/04 10:29:10;;;;;;;22.52;16.05;;;;;;;;;;5033996;28;20377;-59
2022/09/04 10:31:48;;;;;;;19.77;13.52;;;;;;;;;;5033731;28;20022;-68
2022/09/04 10:34:22;;;;;;;20.90;15.80;;;;;;;;;;5034326;28;20523;-59
2022/09/04 10:37:03;;;;;;;18.60;15.18;;;;;;;;;;5034017;28;20092;-60
2022/09/04 10:42:52;;;;;;;19.98;15.65;;;;;;;;;;5034010;28;20039;-58
2022/09/04 10:45:30;;;;;;;22.23;15.20;;;;;;;;;;5033431;28;20040;-60
2022/09/04 10:47:57;;;;;;;20.05;15.20;;;;;;;;;;5033709;28;20405;-60
2022/09/04 10:50:23;;;;;;;17.60;13.52;;;;;;;;;;5033546;28;20461;-58
2022/09/04 10:52:59;;;;;;;19.65;14.07;;;;;;;;;;5033575;28;20060;-59
2022/09/04 10:55:28;;;;;;;21.13;14.60;;;;;;;;;;5033297;28;20021;-59
2022/09/04 10:58:13;;;;;;;19.10;14.88;;;;;;;;;;5033388;28;20540;-57
2022/09/04 11:00:49;;;;;;;21.38;15.18;;;;;;;;;;5033125;28;20034;-57
2022/09/04 11:03:28;;;;;;;17.45;13.80;;;;;;;;;;5033037;28;20377;-57
2022/09/04 11:06:01;;;;;;;17.20;14.05;;;;;;;;;;5033114;28;20381;-57
2022/09/04 11:08:44;;;;;;;17.38;13.70;;;;;;;;;;5042048;28;20066;-68
2022/09/04 11:11:13;;;;;;;18.92;13.90;;;;;;;;;;5044244;28;20465;-68
2022/09/04 11:13:39;;;;;;;19.13;14.30;;;;;;;;;;5033128;28;20076;-69
2022/09/04 11:16:31;;;;;;;20.52;14.10;;;;;;;;;;5033113;28;20058;-57
2022/09/04 11:19:19;;;;;;;19.08;14.23;;;;;;;;;;5030627;28;20041;-57
2022/09/04 11:22:03;;;;;;;19.40;14.00;;;;;;;;;;5030816;28;20040;-58
2022/09/04 11:24:48;;;;;;;18.95;14.05;;;;;;;;;;5030578;28;20038;-57
2022/09/04 11:27:27;;;;;;;17.63;13.65;;;;;;;;;;5030661;28;20415;-57
2022/09/04 11:30:05;;;;;;;19.23;14.02;;;;;;;;;;5030421;28;20042;-68
2022/09/04 11:32:51;;;;;;;18.08;13.73;;;;;;;;;;5030382;28;20033;-64
2022/09/04 11:35:35;;;;;;;18.33;13.18;;;;;;;;;;5030518;28;20561;-56
2022/09/04 11:38:04;;;;;;;21.33;15.93;;;;;;;;;;5030619;28;20046;-56
2022/09/04 11:40:45;;;;;;;18.75;13.25;;;;;;;;;;5038974;28;20029;-57
2022/09/04 11:43:14;;;;;;;17.17;13.18;;;;;;;;;;5023777;28;20041;-57
2022/09/04 11:45:47;;;;;;;15.45;12.07;;;;;;;;;;5049905;28;20060;-57
2022/09/04 11:48:23;;;;;;;21.40;12.38;;;;;;;;;;5047906;28;20566;-57
2022/09/04 11:50:55;;;;;;;15.15;11.48;;;;;;;;;;5030109;28;20040;-56
2022/09/04 11:53:32;;;;;;;16.33;11.68;;;;;;;;;;5029741;28;20056;-56
2022/09/04 11:56:24;;;;;;;15.63;11.95;;;;;;;;;;5033995;28;20041;-56
2022/09/04 11:58:50;;;;;;;;;;;;;;;;;;5039007;28;20126;-58
2022/09/04 12:01:25;;;;;;;15.63;11.00;;;;;;;;;;5031858;28;19916;-59
2022/09/04 12:04:10;;;;;;;14.30;10.60;;;;;;;;;;5032315;28;20548;-63
2022/09/04 12:06:50;;;;;;;19.30;12.95;;;;;;;;;;5032319;28;20063;-60
2022/09/04 12:09:43;;;;;;;12.98;10.52;;;;;;;;;;5031932;28;20017;-69
2022/09/04 12:12:24;;;;;;;13.90;10.57;;;;;;;;;;5031946;28;20100;-60
2022/09/04 12:14:50;;;;;;;13.55;10.40;;;;;;;;;;5051654;28;20071;-71
2022/09/04 12:17:28;;;;;;;15.23;10.70;;;;;;;;;;5051623;28;20052;-63
2022/09/04 12:19:54;;;;;;;13.52;9.45;;;;;;;;;;5048371;28;20108;-68
2022/09/04 12:22:39;;;;;;;13.00;9.48;;;;;;;;;;5048589;28;20099;-58
2022/09/04 12:25:05;;;;;;;16.50;10.40;;;;;;;;;;5051736;28;20029;-59
2022/09/04 12:28:04;;;;;;;10.75;9.02;;;;;;;;;;5051581;28;20435;-59
2022/09/04 12:30:49;;;;;;;9.88;8.25;;;;;;;;;;5049190;28;20037;-60
2022/09/04 12:33:30;;;;;;;12.60;9.25;;;;;;;;;;5049468;28;20170;-59
2022/09/04 12:35:59;;;;;;;13.50;9.63;;;;;;;;;;5043430;28;20029;-59
2022/09/04 12:38:31;;;;;;;16.13;10.50;;;;;;;;;;5029396;28;20026;-59
2022/09/04 12:41:18;;;;;;;16.00;10.27;;;;;;;;;;5029525;28;20120;-57
2022/09/04 12:43:56;;;;;;;13.30;9.30;;;;;;;;;;5047074;28;20094;-59
2022/09/04 12:46:22;;;;;;;12.20;9.25;;;;;;;;;;5048014;28;20060;-59
2022/09/04 12:48:51;;;;;;;21.27;10.32;;;;;;;;;;5047706;28;20485;-71
2022/09/04 12:51:22;;;;;;;21.50;10.48;;;;;;;;;;5033218;28;20575;-58
2022/09/04 12:54:14;;;;;;;14.23;9.70;;;;;;;;;;5031906;28;20061;-58
2022/09/04 12:56:42;;;;;;;14.27;9.93;;;;;;;;;;4950531;29;20087;-69
2022/09/04 12:59:21;;;;;;;12.80;10.43;;;;;;;;;;4949876;29;20039;-72
2022/09/04 13:01:49;;;;;;;16.05;9.93;;;;;;;;;;4949036;29;20090;-59
2022/09/04 13:04:22;;;;;;;15.55;10.70;;;;;;;;;;4949129;29;20031;-70
2022/09/04 13:06:58;;;;;;;14.45;10.07;;;;;;;;;;4958772;28;20160;-57
2022/09/04 13:09:24;;;;;;;17.90;11.50;;;;;;;;;;4959257;28;20538;-66
2022/09/04 13:11:56;;;;;;;18.40;10.52;;;;;;;;;;4958278;28;20031;-60
2022/09/04 13:14:42;;;;;;;14.43;10.98;;;;;;;;;;4958740;28;20062;-62
2022/09/04 13:17:18;;;;;;;14.35;9.93;;;;;;;;;;4933286;29;20146;-69
2022/09/04 13:19:52;;;;;;;17.15;10.60;;;;;;;;;;4939266;29;20047;-59
2022/09/04 13:22:21;;;;;;;14.32;10.27;;;;;;;;;;4943026;29;20062;-58
2022/09/04 13:24:49;;;;;;;14.00;10.77;;;;;;;;;;4945525;29;20546;-59
2022/09/04 13:27:25;;;;;;;14.70;10.38;;;;;;;;;;4938951;29;20043;-81
2022/09/04 13:30:00;;;;;;;12.60;9.70;;;;;;;;;;4950672;29;20127;-59
2022/09/04 13:32:47;;;;;;;12.45;9.93;;;;;;;;;;4952947;28;20031;-59
2022/09/04 13:35:23;;;;;;;15.27;11.00;;;;;;;;;;4989526;28;20042;-60
2022/09/04 13:38:08;;;;;;;12.13;9.30;;;;;;;;;;4989376;28;20038;-61
2022/09/04 13:40:46;;;;;;;12.82;9.63;;;;;;;;;;4989039;28;20394;-58
2022/09/04 13:43:35;;;;;;;12.52;9.88;;;;;;;;;;4985379;28;20034;-61
2022/09/04 13:46:10;;;;;;;14.40;10.10;;;;;;;;;;4989233;28;20519;-58
2022/09/04 13:48:42;;;;;;;12.85;9.77;;;;;;;;;;4988980;28;20031;-59
2022/09/04 13:51:23;;;;;;;14.18;10.05;;;;;;;;;;4988479;28;20034;-58
2022/09/04 13:53:49;;;;;;;15.27;10.05;;;;;;;;;;4998744;28;20036;-59
2022/09/04 13:56:18;;;;;;;11.73;8.85;;;;;;;;;;5037931;28;20037;-59
2022/09/04 13:58:50;;;;;;;12.43;8.60;;;;;;;;;;5031565;28;20025;-59
2022/09/04 14:01:20;;;;;;;12.73;9.88;;;;;;;;;;5046670;28;20051;-58
2022/09/04 14:03:58;;;;;;;13.98;9.98;;;;;;;;;;5054373;28;20029;-59
2022/09/04 14:06:26;;;;;;;12.15;8.10;;;;;;;;;;5034523;28;20100;-58
2022/09/04 14:08:54;;;;;;;9.90;7.72;;;;;;;;;;5034166;28;20057;-58
2022/09/04 14:11:20;;;;;;;11.50;8.85;;;;;;;;;;5034008;28;20036;-58
2022/09/04 14:14:10;;;;;;;12.13;8.25;;;;;;;;;;5037154;28;20426;-57
2022/09/04 14:16:40;;;;;;;13.93;8.75;;;;;;;;;;5038593;28;20063;-62
2022/09/04 14:19:08;;;;;;;11.70;8.48;;;;;;;;;;5045077;28;20033;-57
2022/09/04 14:21:54;;;;;;;11.43;8.02;;;;;;;;;;5039989;28;20014;-59
2022/09/04 14:24:31;;;;;;;11.43;8.35;;;;;;;;;;5039027;28;20047;-59
2022/09/04 14:26:57;;;;;;;12.20;8.10;;;;;;;;;;5041116;28;20033;-64
2022/09/04 14:29:50;;;;;;;12.18;9.13;;;;;;;;;;5051334;28;20108;-58
2022/09/04 14:32:37;;;;;;;12.52;8.52;;;;;;;;;;5043327;28;20025;-81
2022/09/04 14:35:09;;;;;;;12.75;8.75;;;;;;;;;;5049757;28;20036;-59
2022/09/04 14:37:50;;;;;;;11.77;8.73;;;;;;;;;;5044653;28;20090;-59
2022/09/04 14:40:24;;;;;;;11.68;9.40;;;;;;;;;;5045100;28;20039;-82
2022/09/04 14:43:02;;;;;;;12.70;8.88;;;;;;;;;;5038849;28;20034;-58
2022/09/04 14:45:31;;;;;;;11.75;8.25;;;;;;;;;;5043794;28;20033;-58
2022/09/04 14:48:02;;;;;;;11.98;8.40;;;;;;;;;;5043066;28;20016;-81
2022/09/04 14:50:30;;;;;;;12.82;9.18;;;;;;;;;;5043941;28;20030;-60
2022/09/04 14:52:59;;;;;;;10.82;8.90;;;;;;;;;;5040966;28;20033;-58
2022/09/04 14:55:39;;;;;;;13.73;8.50;;;;;;;;;;5035805;28;20495;-59
2022/09/04 14:58:11;;;;;;;10.50;8.55;;;;;;;;;;5039952;28;20045;-59
2022/09/04 15:00:37;;;;;;;;;;;;;;;;;;5049615;28;20034;-59
2022/09/04 15:03:14;;;;;;;10.55;8.60;;;;;;;;;;5044694;28;19966;-59
2022/09/04 15:05:46;;;;;;;10.63;8.38;;;;;;;;;;5053897;28;20388;-58
2022/09/04 15:08:13;;;;;;;12.35;9.00;;;;;;;;;;5052182;28;20039;-59
2022/09/04 15:10:48;;;;;;;11.55;8.75;;;;;;;;;;5053376;28;20025;-58
2022/09/04 15:13:26;;;;;;;13.02;9.10;;;;;;;;;;5052872;28;20033;-59
2022/09/04 15:15:57;;;;;;;16.88;8.20;;;;;;;;;;5053209;28;20135;-58
2022/09/04 15:18:35;;;;;;;14.57;9.10;;;;;;;;;;5053810;28;20042;-59
2022/09/04 15:21:05;;;;;;;10.40;8.50;;;;;;;;;;5052833;28;20336;-58